Huvudsida
METAR-TAF:

METAR-TAF

Flygplatser :

Vamdrup

Kolding, Danmark

latitud: 55-26N, longitud: 009-20E, höjd: 44 m

Aktuellt väderrapport

Denna rapport gjordes för 51 minuter sedan, klockan 07:50 UTC
Vind 30 kt från sydväst i byarna ända upp till 49 kt
Temperatur 8°C
Fuktighet 93%
Tryck 1000 hPa

METAR: EKVD 220750Z AUTO 23030G49KT //// ///////// 08/07 Q1000

Tid: 09:41 (08:41 UTC)

Väderprognos

Denna rapport gjordes för 20 timmar och 46 minuter sedan, klockan 11:55 UTC
Prognos gäller från 21 kl. 12 UTC till 21 kl. 17 UTC
Vind 20 kt från väst/sydväst
Sikt 10 km eller mer
Brutna moln på en höjd av 2000 ft
Temporärt
från 21 kl. 12 UTC till 21 kl. 15 UTC
Vind 22 kt från väst/sydväst i byarna ända upp till 35 kt
Blir
från 21 kl. 15 UTC till 21 kl. 17 UTC
Vind 22 kt från väst/sydväst i byarna ända upp till 35 kt
Sikt: 4000 m
Brutna moln på en höjd av 1200 ft
lätt regn, duggregn

TAF: EKVD 211155Z 2112/2117 25020KT 9999 BKN020 TEMPO 2112/2115 24022G35KT BECMG 2115/2117 24022G35KT 4000 -RADZ BKN012

Aktuella väderrapporter och prognoser från 4000 flygplatser (METAR- och TAF-rapporter).

De tillgängliga stationerna syns som gula och röda prickar på kartan.

För musen över prickarna för att se namnen på stationerna.

Klicka sedan för att få väderrapporter och prognoser.

För att ändra kartan: Klicka på de gröna knapparna med ett svart kors på för att zooma in; den gröna knappen med ett streck på för att zooma ut; eller på de gröna pilarna för angränsande kartor.


METAR-TAF: